Terminal Aerodrome Forecast
Issued by NWS Wilmington, OH

Current Version | Previous Version | Text Only | Print | Product List | Glossary Off
Versions: 1 2 3 4 5 6 7 8 9 10 11 12 13 14 15 16 17 18 19 20 21 22 23 24 25 26 27

725
FTUS41 KILN 242058 AAB
TAFCVG
TAF AMD
KCVG 242058Z 2421/2524 02007KT 3SM BR VCSH BKN006 OVC012
     FM250100 35006KT 5SM BR OVC006
     FM251300 35010KT P6SM OVC012
     FM251800 33009KT P6SM BKN025
     FM252100 33006KT P6SM BKN035=

USA.gov is the U.S. government's official web portal to all federal, state and local government web resources and services.